Weather at Circle P Ranch Airport

Public forecast

Using degrees Fahrenheit for public forecast. Weather courtesy of forecast.io.

Closest aviation weather report (METAR) to Circle P Ranch Airport

Closest report is Pleasanton Municipal Airport, 18.2 nm (33.8 km) WSW.

2024/05/25 04:35 (retrieved 22 minutes ago)

KPEZ 250435Z AUTO 13004KT 10SM CLR 28/24 A2976 RMK AO2 T02840240

Closest aviation forecast (TAF) to Circle P Ranch Airport

Forecast is more than 12 hours old.

Closest forecast is Randolph Air Force Base, 25.8 nm (47.9 km) N.

2024/05/23 16:12 (retrieved 2 days ago)

TAF TAF KRND 231550Z 2316/2422 16012G18KT 8000 HZ BKN020 QNH2974INS BECMG 2316/2317 17015G25KT 9000 HZ BKN030 QNH2972INS BECMG 2323/2324 16010G15KT 9999 NSW SCT055 QNH2968INS BECMG 2403/2404 14006KT 9999 BKN025 QNH2972INS BECMG 2405/2406 14009KT 8000 BR BKN009 BKN016 QNH2975INS BECMG 2414/2415 18010G15KT 8000 BR OVC009 QNH2979INS BECMG 2415/2416 18012G18KT 9999 NSW BKN017 BKN025 QNH2979INS BECMG 2416/2417 18010G15KT 9999 SKC QNH2966INS TX35/2322Z TN25/2412Z LAST NO AMDS AFT 2400 NEXT 2810